createdAt,value
2022-10-15T00:00:07.158Z,7.88
2022-10-15T00:05:10.058Z,7.73
2022-10-15T00:10:12.769Z,7.80
2022-10-15T00:15:15.996Z,7.63
2022-10-15T00:20:19.125Z,7.60
2022-10-15T00:25:21.767Z,7.90
2022-10-15T00:30:24.477Z,7.57
2022-10-15T00:35:27.254Z,7.15
2022-10-15T00:40:30.034Z,7.60
2022-10-15T00:45:32.781Z,7.40
2022-10-15T00:50:35.934Z,7.63
2022-10-15T00:55:42.876Z,6.83
2022-10-15T01:00:46.221Z,7.13
2022-10-15T01:05:51.497Z,7.33
2022-10-15T01:11:22.155Z,6.80
2022-10-15T01:16:36.742Z,7.07
2022-10-15T01:21:48.677Z,7.97
2022-10-15T01:27:21.212Z,8.02
2022-10-15T01:32:37.323Z,8.47
2022-10-15T01:37:52.055Z,9.20
2022-10-15T01:43:04.063Z,8.52
2022-10-15T01:48:26.736Z,9.63
2022-10-15T01:53:34.536Z,9.85
2022-10-15T01:58:43.439Z,8.60
2022-10-15T02:03:51.790Z,9.45
2022-10-15T02:09:19.414Z,8.52
2022-10-15T02:14:35.139Z,8.30
2022-10-15T02:19:55.357Z,8.38
2022-10-15T02:25:03.815Z,7.87
2022-10-15T02:30:09.212Z,8.80
2022-10-15T02:35:13.008Z,8.07
2022-10-15T02:40:19.508Z,7.43
2022-10-15T02:45:22.911Z,8.35
2022-10-15T02:50:26.017Z,7.37
2022-10-15T02:55:28.834Z,8.45
2022-10-15T03:00:31.578Z,7.45
2022-10-15T03:05:35.333Z,8.43
2022-10-15T03:10:38.148Z,7.97
2022-10-15T03:15:41.032Z,7.57
2022-10-15T03:20:44.753Z,8.43
2022-10-15T03:25:48.906Z,8.63
2022-10-15T03:30:57.460Z,7.17
2022-10-15T03:36:00.125Z,7.43
2022-10-15T03:41:03.266Z,7.80
2022-10-15T03:46:11.347Z,7.50
2022-10-15T03:51:22.725Z,6.97
2022-10-15T03:56:32.794Z,6.30
2022-10-15T04:01:52.433Z,8.20
2022-10-15T04:06:55.260Z,7.03
2022-10-15T04:11:58.956Z,7.63
2022-10-15T04:17:01.955Z,7.22
2022-10-15T04:22:06.206Z,7.50
2022-10-15T04:27:16.996Z,8.02
2022-10-15T04:32:20.993Z,8.37
2022-10-15T04:37:23.922Z,8.70
2022-10-15T04:42:30.029Z,9.68
2022-10-15T04:47:32.709Z,8.70
2022-10-15T04:52:43.143Z,9.30
2022-10-15T04:57:48.367Z,7.93
2022-10-15T05:02:57.909Z,8.57
2022-10-15T05:08:12.512Z,9.25
2022-10-15T05:13:34.822Z,8.07
2022-10-15T05:18:40.481Z,7.63
2022-10-15T05:23:45.091Z,7.80
2022-10-15T05:29:05.848Z,8.68
2022-10-15T05:34:09.552Z,8.00
2022-10-15T05:39:20.518Z,7.50
2022-10-15T05:44:23.548Z,7.43
2022-10-15T05:49:26.363Z,8.07
2022-10-15T05:54:40.103Z,7.75
2022-10-15T05:59:42.988Z,7.90
2022-10-15T06:04:47.364Z,7.53
2022-10-15T06:09:50.304Z,7.40
2022-10-15T06:14:53.623Z,7.83
2022-10-15T06:19:56.425Z,7.88
2022-10-15T06:24:59.239Z,7.38
2022-10-15T06:30:02.657Z,7.77
2022-10-15T06:35:05.804Z,8.30
2022-10-15T06:40:10.192Z,8.30
2022-10-15T06:45:20.917Z,7.75
2022-10-15T06:50:24.766Z,7.53
2022-10-15T06:55:29.198Z,7.57
2022-10-15T07:00:32.047Z,7.68
2022-10-15T07:05:35.964Z,7.90
2022-10-15T07:10:38.822Z,7.55
2022-10-15T07:15:41.592Z,7.10
2022-10-15T07:20:44.390Z,7.03
2022-10-15T07:25:47.301Z,7.43
2022-10-15T07:30:50.345Z,7.73
2022-10-15T07:35:53.530Z,7.20
2022-10-15T07:41:03.916Z,7.80
2022-10-15T07:46:08.124Z,6.97
2022-10-15T07:51:11.958Z,7.80
2022-10-15T07:56:16.729Z,7.50
2022-10-15T08:01:21.350Z,8.18
2022-10-15T08:06:24.294Z,7.60
2022-10-15T08:11:27.294Z,7.93
2022-10-15T08:16:30.554Z,8.00
2022-10-15T08:21:33.891Z,8.07
2022-10-15T08:26:37.271Z,7.68
2022-10-15T08:31:41.160Z,7.45
2022-10-15T08:36:44.042Z,6.77
2022-10-15T08:42:00.152Z,7.72
2022-10-15T08:47:08.600Z,7.67
2022-10-15T08:52:41.211Z,7.57
2022-10-15T08:57:50.980Z,7.55
2022-10-15T09:03:10.936Z,6.67
2022-10-15T09:08:29.309Z,6.88
2022-10-15T09:13:40.946Z,7.67
2022-10-15T09:18:49.143Z,5.20
2022-10-15T09:23:55.669Z,6.75
2022-10-15T09:29:36.673Z,6.30
2022-10-15T09:35:02.417Z,5.43
2022-10-15T09:40:08.249Z,4.47
2022-10-15T09:45:15.107Z,4.95
2022-10-15T09:55:32.204Z,5.10
2022-10-15T10:00:53.388Z,5.53
2022-10-15T10:06:15.298Z,5.87
2022-10-15T10:11:24.052Z,6.00
2022-10-15T10:16:28.058Z,5.85
2022-10-15T10:21:37.491Z,4.03
2022-10-15T10:26:40.611Z,5.57
2022-10-15T10:31:45.263Z,5.10
2022-10-15T10:37:04.973Z,5.55
2022-10-15T10:42:15.199Z,5.20
2022-10-15T10:47:23.906Z,4.70
2022-10-15T10:52:38.071Z,4.63
2022-10-15T10:57:52.100Z,4.40
2022-10-15T11:02:55.191Z,4.47
2022-10-15T11:08:16.992Z,5.03
2022-10-15T11:13:31.271Z,4.73
2022-10-15T11:18:55.740Z,4.82
2022-10-15T11:24:14.659Z,4.83
2022-10-15T11:29:39.255Z,4.47
2022-10-15T11:35:08.662Z,4.90
2022-10-15T11:40:26.895Z,4.33
2022-10-15T11:45:38.922Z,4.75
2022-10-15T11:51:04.099Z,4.87
2022-10-15T11:56:33.694Z,5.05
2022-10-15T12:01:42.697Z,5.20
2022-10-15T12:06:52.743Z,5.00
2022-10-15T12:12:26.820Z,4.90
2022-10-15T12:17:57.933Z,4.70
2022-10-15T12:23:03.088Z,4.97
2022-10-15T12:28:16.111Z,4.90
2022-10-15T12:33:44.998Z,4.83
2022-10-15T12:39:33.602Z,4.80
2022-10-15T12:44:50.100Z,4.70
2022-10-15T12:50:03.995Z,4.20
2022-10-15T12:55:40.068Z,4.85
2022-10-15T13:00:43.863Z,4.83
2022-10-15T13:05:48.984Z,4.80
2022-10-15T13:11:01.553Z,4.80
2022-10-15T13:16:08.925Z,4.97
2022-10-15T13:21:13.793Z,4.85
2022-10-15T13:26:22.715Z,4.73
2022-10-15T13:31:36.472Z,4.88
2022-10-15T13:36:39.561Z,4.77
2022-10-15T13:41:42.352Z,4.70
2022-10-15T13:46:45.322Z,4.45
2022-10-15T13:51:50.432Z,4.13
2022-10-15T13:56:59.397Z,4.47
2022-10-15T14:02:04.579Z,4.10
2022-10-15T14:07:25.353Z,4.40
2022-10-15T14:12:28.389Z,3.90
2022-10-15T14:17:31.614Z,4.33
2022-10-15T14:22:36.073Z,4.22
2022-10-15T14:27:38.982Z,4.10
2022-10-15T14:32:51.978Z,4.40
2022-10-15T14:38:06.642Z,4.50
2022-10-15T14:43:19.838Z,4.20
2022-10-15T14:48:36.661Z,4.40
2022-10-15T14:53:45.063Z,4.43
2022-10-15T14:58:52.608Z,4.05
2022-10-15T15:03:57.331Z,4.35
2022-10-15T15:09:00.203Z,5.70
2022-10-15T15:14:04.044Z,4.13
2022-10-15T15:19:09.407Z,4.40
2022-10-15T15:24:13.049Z,4.53
2022-10-15T15:29:15.907Z,5.50
2022-10-15T15:34:20.228Z,6.73
2022-10-15T15:39:23.365Z,5.28
2022-10-15T15:44:26.459Z,5.13
2022-10-15T15:49:29.310Z,4.60
2022-10-15T15:54:32.711Z,4.80
2022-10-15T15:59:35.872Z,4.43
2022-10-15T16:04:38.719Z,5.25
2022-10-15T16:09:42.045Z,4.93
2022-10-15T16:14:44.936Z,4.80
2022-10-15T16:19:47.791Z,4.45
2022-10-15T16:24:50.621Z,4.70
2022-10-15T16:29:53.455Z,5.25
2022-10-15T16:34:56.191Z,4.93
2022-10-15T16:39:59.050Z,5.85
2022-10-15T16:45:01.859Z,6.50
2022-10-15T16:50:04.951Z,6.40
2022-10-15T16:55:08.213Z,6.35
2022-10-15T17:00:11.693Z,6.77
2022-10-15T17:05:14.759Z,6.50
2022-10-15T17:10:17.978Z,6.38
2022-10-15T17:15:20.831Z,6.57
2022-10-15T17:20:23.810Z,7.72
2022-10-15T17:25:26.823Z,5.73
2022-10-15T17:30:29.653Z,6.25
2022-10-15T17:35:37.214Z,6.35
2022-10-15T17:40:41.108Z,5.50
2022-10-15T17:45:44.080Z,5.80
2022-10-15T17:50:47.379Z,6.23
2022-10-15T17:55:50.502Z,5.30
2022-10-15T18:00:58.466Z,5.78
2022-10-15T18:06:08.268Z,5.90
2022-10-15T18:11:13.960Z,5.90
2022-10-15T18:16:17.659Z,6.00
2022-10-15T18:21:22.794Z,6.40
2022-10-15T18:26:25.722Z,5.97
2022-10-15T18:31:28.951Z,6.10
2022-10-15T18:36:33.234Z,6.40
2022-10-15T18:41:38.416Z,6.30
2022-10-15T18:46:42.489Z,6.50
2022-10-15T18:51:46.812Z,6.30
2022-10-15T18:56:50.247Z,6.57
2022-10-15T19:01:55.132Z,6.97
2022-10-15T19:07:02.767Z,6.43
2022-10-15T19:12:06.022Z,6.05
2022-10-15T19:17:08.975Z,7.40
2022-10-15T19:22:12.402Z,6.87
2022-10-15T19:27:15.249Z,7.13
2022-10-15T19:32:18.222Z,6.97
2022-10-15T19:37:21.131Z,7.50
2022-10-15T19:42:24.463Z,6.90
2022-10-15T19:47:27.931Z,7.50
2022-10-15T19:52:31.398Z,7.80
2022-10-15T19:57:34.306Z,8.57
2022-10-15T20:02:37.253Z,7.43
2022-10-15T20:07:40.134Z,7.72
2022-10-15T20:12:43.243Z,8.50
2022-10-15T20:17:47.135Z,7.97
2022-10-15T20:22:49.998Z,8.60
2022-10-15T20:27:53.222Z,8.48
2022-10-15T20:32:56.425Z,8.13
2022-10-15T20:37:59.736Z,9.23
2022-10-15T20:43:02.728Z,9.38
2022-10-15T20:48:06.562Z,9.60
2022-10-15T20:53:09.774Z,9.93
2022-10-15T20:58:12.999Z,8.57
2022-10-15T21:03:16.441Z,9.23
2022-10-15T21:08:19.564Z,8.48
2022-10-15T21:13:23.393Z,8.33
2022-10-15T21:18:27.321Z,9.60
2022-10-15T21:23:31.418Z,8.75
2022-10-15T21:28:35.447Z,8.93
2022-10-15T21:33:38.691Z,9.65
2022-10-15T21:38:42.161Z,9.23
2022-10-15T21:43:44.941Z,8.85
2022-10-15T21:48:48.172Z,9.07
2022-10-15T21:53:51.277Z,9.37
2022-10-15T21:58:55.113Z,8.77
2022-10-15T22:04:07.304Z,8.30
2022-10-15T22:09:11.426Z,8.30
2022-10-15T22:14:14.770Z,8.23
2022-10-15T22:19:18.720Z,8.03
2022-10-15T22:24:21.737Z,8.60
2022-10-15T22:29:34.441Z,8.73
2022-10-15T22:34:38.206Z,8.32
2022-10-15T22:39:41.090Z,8.40
2022-10-15T22:44:44.112Z,9.00
2022-10-15T22:49:46.741Z,7.53
2022-10-15T22:54:50.870Z,8.00
2022-10-15T22:59:55.965Z,8.00
2022-10-15T23:05:01.460Z,7.70
2022-10-15T23:10:04.862Z,7.97
2022-10-15T23:15:08.144Z,8.27
2022-10-15T23:20:12.158Z,8.23
2022-10-15T23:25:15.171Z,8.07
2022-10-15T23:30:24.785Z,7.88
2022-10-15T23:35:28.032Z,7.90
2022-10-15T23:40:31.361Z,7.80
2022-10-15T23:45:35.805Z,8.13
2022-10-15T23:50:41.118Z,7.80
2022-10-15T23:55:43.953Z,7.72
